createdAt,value
2018-02-12T00:01:47.836Z,29.58
2018-02-12T00:04:16.143Z,29.92
2018-02-12T00:06:44.501Z,29.40
2018-02-12T00:09:12.875Z,34.25
2018-02-12T00:11:41.229Z,32.28
2018-02-12T00:14:09.521Z,31.45
2018-02-12T00:16:37.877Z,35.17
2018-02-12T00:19:06.208Z,31.55
2018-02-12T00:21:34.543Z,32.60
2018-02-12T00:24:02.870Z,31.58
2018-02-12T00:26:31.200Z,32.88
2018-02-12T00:28:59.509Z,31.73
2018-02-12T00:31:27.853Z,30.37
2018-02-12T00:33:56.240Z,29.95
2018-02-12T00:36:24.560Z,32.50
2018-02-12T00:38:52.914Z,33.53
2018-02-12T00:41:21.268Z,32.05
2018-02-12T00:43:49.593Z,25.95
2018-02-12T00:46:17.882Z,24.70
2018-02-12T00:48:46.221Z,28.27
2018-02-12T00:51:14.548Z,27.52
2018-02-12T00:53:42.858Z,24.50
2018-02-12T00:56:11.268Z,25.00
2018-02-12T00:58:39.639Z,26.55
2018-02-12T01:01:08.001Z,28.20
2018-02-12T01:03:36.310Z,25.42
2018-02-12T01:06:04.653Z,26.40
2018-02-12T01:08:32.970Z,23.42
2018-02-12T01:11:01.409Z,24.45
2018-02-12T01:13:29.704Z,24.48
2018-02-12T01:15:58.021Z,25.37
2018-02-12T01:18:26.446Z,24.00
2018-02-12T01:20:56.910Z,24.65
2018-02-12T01:23:25.258Z,25.90
2018-02-12T01:25:53.576Z,24.35
2018-02-12T01:28:21.922Z,24.00
2018-02-12T01:30:50.230Z,24.70
2018-02-12T01:33:18.586Z,23.60
2018-02-12T01:35:46.998Z,23.75
2018-02-12T01:38:15.305Z,23.10
2018-02-12T01:40:43.620Z,24.12
2018-02-12T01:43:11.941Z,22.55
2018-02-12T01:45:40.281Z,21.75
2018-02-12T01:48:08.625Z,23.02
2018-02-12T01:50:36.954Z,24.10
2018-02-12T01:53:12.360Z,25.60
2018-02-12T01:55:40.816Z,22.73
2018-02-12T01:58:09.188Z,23.30
2018-02-12T02:00:37.589Z,22.20
2018-02-12T02:03:05.886Z,23.67
2018-02-12T02:05:34.326Z,24.55
2018-02-12T02:08:02.665Z,22.45
2018-02-12T02:10:30.991Z,21.12
2018-02-12T02:12:59.319Z,19.20
2018-02-12T02:15:27.637Z,17.85
2018-02-12T02:17:56.029Z,16.87
2018-02-12T02:20:24.380Z,18.17
2018-02-12T02:22:52.696Z,17.67
2018-02-12T02:25:21.076Z,18.33
2018-02-12T02:27:49.469Z,18.62
2018-02-12T02:30:17.805Z,19.85
2018-02-12T02:32:47.140Z,18.37
2018-02-12T02:35:15.581Z,20.85
2018-02-12T02:37:44.031Z,21.55
2018-02-12T02:40:13.422Z,21.02
2018-02-12T02:42:41.817Z,23.50
2018-02-12T02:45:10.221Z,22.40
2018-02-12T02:47:38.602Z,23.20
2018-02-12T02:50:10.664Z,22.42
2018-02-12T02:52:38.980Z,24.77
2018-02-12T02:55:07.400Z,24.35
2018-02-12T02:57:35.834Z,23.12
2018-02-12T03:00:04.316Z,26.33
2018-02-12T03:02:32.705Z,28.90
2018-02-12T03:05:01.218Z,26.75
2018-02-12T03:07:30.659Z,27.62
2018-02-12T03:09:59.093Z,28.05
2018-02-12T03:12:27.412Z,25.60
2018-02-12T03:14:55.805Z,29.42
2018-02-12T03:17:24.106Z,27.58
2018-02-12T03:19:52.474Z,28.67
2018-02-12T03:22:20.790Z,28.95
2018-02-12T03:24:49.097Z,30.67
2018-02-12T03:27:17.432Z,27.75
2018-02-12T03:29:45.730Z,30.92
2018-02-12T03:32:14.198Z,29.52
2018-02-12T03:34:42.540Z,31.17
2018-02-12T03:37:10.953Z,31.50
2018-02-12T03:39:39.287Z,30.52
2018-02-12T03:42:07.746Z,31.62
2018-02-12T03:44:36.057Z,38.70
2018-02-12T03:47:04.472Z,39.78
2018-02-12T03:49:33.837Z,42.88
2018-02-12T03:52:02.157Z,41.05
2018-02-12T03:54:30.467Z,41.95
2018-02-12T03:56:58.766Z,45.17
2018-02-12T03:59:27.095Z,40.97
2018-02-12T04:01:55.423Z,43.00
2018-02-12T04:04:23.769Z,40.78
2018-02-12T04:06:52.105Z,39.30
2018-02-12T04:09:20.413Z,39.42
2018-02-12T04:11:48.743Z,40.95
2018-02-12T04:14:17.077Z,41.53
2018-02-12T04:16:45.482Z,37.72
2018-02-12T04:19:13.844Z,41.00
2018-02-12T04:21:42.189Z,40.50
2018-02-12T04:24:10.622Z,41.67
2018-02-12T04:26:38.925Z,40.12
2018-02-12T04:29:07.249Z,42.85
2018-02-12T04:31:35.574Z,40.05
2018-02-12T04:34:03.954Z,39.67
2018-02-12T04:36:32.326Z,41.03
2018-02-12T04:39:00.696Z,40.38
2018-02-12T04:41:29.042Z,40.53
2018-02-12T04:43:57.364Z,39.58
2018-02-12T04:46:27.847Z,39.47
2018-02-12T04:48:56.203Z,38.65
2018-02-12T04:51:24.545Z,42.53
2018-02-12T04:53:52.875Z,41.20
2018-02-12T04:56:21.187Z,38.53
2018-02-12T04:58:49.502Z,39.45
2018-02-12T05:01:17.838Z,38.10
2018-02-12T05:03:46.123Z,41.13
2018-02-12T05:06:14.478Z,37.60
2018-02-12T05:08:42.807Z,38.33
2018-02-12T05:11:11.147Z,39.38
2018-02-12T05:13:39.486Z,37.88
2018-02-12T05:16:07.885Z,34.60
2018-02-12T05:18:36.236Z,40.60
2018-02-12T05:21:04.574Z,36.20
2018-02-12T05:23:32.909Z,37.55
2018-02-12T05:26:01.342Z,44.22
2018-02-12T05:28:30.690Z,36.30
2018-02-12T05:30:59.088Z,39.55
2018-02-12T05:33:27.434Z,40.60
2018-02-12T05:35:55.753Z,36.83
2018-02-12T05:38:24.092Z,37.78
2018-02-12T05:40:52.417Z,38.40
2018-02-12T05:43:20.708Z,42.47
2018-02-12T05:45:49.034Z,42.25
2018-02-12T05:48:17.368Z,40.78
2018-02-12T05:50:45.703Z,42.78
2018-02-12T05:53:14.108Z,43.75
2018-02-12T05:55:42.416Z,42.88
2018-02-12T05:58:10.766Z,41.95
2018-02-12T06:00:39.113Z,40.12
2018-02-12T06:03:07.488Z,41.45
2018-02-12T06:05:35.894Z,38.40
2018-02-12T06:08:04.251Z,36.47
2018-02-12T06:10:33.686Z,35.75
2018-02-12T06:13:02.117Z,35.08
2018-02-12T06:15:31.477Z,30.92
2018-02-12T06:17:59.812Z,30.35
2018-02-12T06:20:28.145Z,30.33
2018-02-12T06:22:56.480Z,29.17
2018-02-12T06:25:24.797Z,28.08
2018-02-12T06:27:54.107Z,27.98
2018-02-12T06:30:22.486Z,28.52
2018-02-12T06:32:50.819Z,28.15
2018-02-12T06:35:19.176Z,28.83
2018-02-12T06:37:47.572Z,25.33
2018-02-12T06:40:15.994Z,27.00
2018-02-12T06:42:44.373Z,27.15
2018-02-12T06:45:12.742Z,26.98
2018-02-12T06:47:41.078Z,27.08
2018-02-12T06:50:09.429Z,29.87
2018-02-12T06:52:38.822Z,25.95
2018-02-12T06:55:07.149Z,26.83
2018-02-12T06:57:36.568Z,25.83
2018-02-12T07:00:04.911Z,26.77
2018-02-12T07:02:33.241Z,25.08
2018-02-12T07:05:01.588Z,25.67
2018-02-12T07:07:29.939Z,22.20
2018-02-12T07:09:58.250Z,23.27
2018-02-12T07:12:26.579Z,23.52
2018-02-12T07:14:54.910Z,24.48
2018-02-12T07:17:23.286Z,23.08
2018-02-12T07:19:51.672Z,24.17
2018-02-12T07:22:20.032Z,24.75
2018-02-12T07:24:48.368Z,23.05
2018-02-12T07:27:16.720Z,22.73
2018-02-12T07:29:45.120Z,24.35
2018-02-12T07:32:13.515Z,24.67
2018-02-12T07:34:41.830Z,24.00
2018-02-12T07:37:10.161Z,24.27
2018-02-12T07:39:38.502Z,22.80
2018-02-12T07:42:06.848Z,24.00
2018-02-12T07:44:35.248Z,25.12
2018-02-12T07:47:03.582Z,23.73
2018-02-12T07:49:31.891Z,24.27
2018-02-12T07:52:00.221Z,24.33
2018-02-12T07:54:28.534Z,23.80
2018-02-12T07:56:56.880Z,22.75
2018-02-12T07:59:25.186Z,21.30
2018-02-12T08:01:53.508Z,21.58
2018-02-12T08:04:21.856Z,22.33
2018-02-12T08:06:50.161Z,23.45
2018-02-12T08:09:18.506Z,22.48
2018-02-12T08:11:46.806Z,24.70
2018-02-12T08:14:15.184Z,23.20
2018-02-12T08:16:43.549Z,23.85
2018-02-12T08:19:11.862Z,25.20
2018-02-12T08:21:40.223Z,27.23
2018-02-12T08:24:08.527Z,27.37
2018-02-12T08:26:36.868Z,29.80
2018-02-12T08:29:05.247Z,30.77
2018-02-12T08:31:33.691Z,32.05
2018-02-12T08:34:02.033Z,39.40
2018-02-12T08:36:30.361Z,34.97
2018-02-12T08:38:58.682Z,35.60
2018-02-12T08:41:27.013Z,36.38
2018-02-12T08:43:55.362Z,39.22
2018-02-12T08:46:24.755Z,40.05
2018-02-12T08:48:53.545Z,45.12
2018-02-12T08:51:21.918Z,37.03
2018-02-12T08:53:50.238Z,37.45
2018-02-12T08:56:18.582Z,40.58
2018-02-12T08:58:46.929Z,41.80
2018-02-12T09:01:15.260Z,43.25
2018-02-12T09:03:43.603Z,40.35
2018-02-12T09:06:11.914Z,38.65
2018-02-12T09:08:40.243Z,38.97
2018-02-12T09:11:08.630Z,37.63
2018-02-12T09:13:37.002Z,37.97
2018-02-12T09:16:05.369Z,43.97
2018-02-12T09:18:33.740Z,39.75
2018-02-12T09:21:02.093Z,39.67
2018-02-12T09:23:30.453Z,38.83
2018-02-12T09:25:58.872Z,34.33
2018-02-12T09:28:27.185Z,34.25
2018-02-12T09:30:55.490Z,34.15
2018-02-12T09:33:23.808Z,34.90
2018-02-12T09:35:52.141Z,36.03
2018-02-12T09:38:20.469Z,32.30
2018-02-12T09:40:48.763Z,32.47
2018-02-12T09:43:17.094Z,29.23
2018-02-12T09:45:45.403Z,29.08
2018-02-12T09:48:13.734Z,30.00
2018-02-12T09:50:42.064Z,30.67
2018-02-12T09:53:10.378Z,26.00
2018-02-12T09:55:38.692Z,26.48
2018-02-12T09:58:07.062Z,26.45
2018-02-12T10:00:35.445Z,28.35
2018-02-12T10:03:03.786Z,27.95
2018-02-12T10:05:32.115Z,29.50
2018-02-12T10:08:00.454Z,28.45
2018-02-12T10:10:28.768Z,25.37
2018-02-12T10:12:57.086Z,26.45
2018-02-12T10:15:25.408Z,27.50
2018-02-12T10:17:53.750Z,23.05
2018-02-12T10:20:24.185Z,24.08
2018-02-12T10:22:52.527Z,23.40
2018-02-12T10:25:20.853Z,23.05
2018-02-12T10:27:49.181Z,24.98
2018-02-12T10:30:17.507Z,23.27
2018-02-12T10:32:45.834Z,23.62
2018-02-12T10:35:14.193Z,24.87
2018-02-12T10:37:42.508Z,23.38
2018-02-12T10:40:10.897Z,22.48
2018-02-12T10:42:39.196Z,22.05
2018-02-12T10:45:07.497Z,23.35
2018-02-12T10:47:35.879Z,24.48
2018-02-12T10:50:04.210Z,22.90
2018-02-12T10:52:32.544Z,23.98
2018-02-12T10:55:00.922Z,26.08
2018-02-12T10:57:29.240Z,24.00
2018-02-12T10:59:57.675Z,23.95
2018-02-12T11:02:26.021Z,22.40
2018-02-12T11:04:54.378Z,24.02
2018-02-12T11:07:22.686Z,22.10
2018-02-12T11:09:51.000Z,22.98
2018-02-12T11:12:19.362Z,22.77
2018-02-12T11:14:47.686Z,21.67
2018-02-12T11:17:16.297Z,20.27
2018-02-12T11:19:44.605Z,20.92
2018-02-12T11:22:13.014Z,23.60
2018-02-12T11:24:42.138Z,23.98
2018-02-12T11:27:10.545Z,22.45
2018-02-12T11:29:38.870Z,23.90
2018-02-12T11:32:07.220Z,23.00
2018-02-12T11:34:35.584Z,22.37
2018-02-12T11:37:03.942Z,23.73
2018-02-12T11:39:32.260Z,24.00
2018-02-12T11:42:00.594Z,24.05
2018-02-12T11:44:28.949Z,24.30
2018-02-12T11:46:57.244Z,23.70
2018-02-12T11:49:25.643Z,24.17
2018-02-12T11:51:54.998Z,23.83
2018-02-12T11:54:23.337Z,23.98
2018-02-12T11:56:51.752Z,22.33
2018-02-12T11:59:20.061Z,21.95
2018-02-12T12:01:49.446Z,22.30
2018-02-12T12:04:17.789Z,24.90
2018-02-12T12:06:46.177Z,23.70
2018-02-12T12:09:15.268Z,22.52
2018-02-12T12:11:43.643Z,22.55
2018-02-12T12:14:13.088Z,23.90
2018-02-12T12:16:41.425Z,22.30
2018-02-12T12:19:09.783Z,22.95
2018-02-12T12:21:40.222Z,20.90
2018-02-12T12:24:08.598Z,22.90
2018-02-12T12:26:37.557Z,22.77
2018-02-12T12:29:05.880Z,25.70
2018-02-12T12:31:34.255Z,23.65
2018-02-12T12:34:02.654Z,24.30
2018-02-12T12:36:31.030Z,28.15
2018-02-12T12:38:59.417Z,24.90
2018-02-12T12:41:27.768Z,25.30
2018-02-12T12:43:57.050Z,27.37
2018-02-12T12:46:25.370Z,27.13
2018-02-12T12:48:53.834Z,27.65
2018-02-12T12:51:22.129Z,26.87
2018-02-12T12:53:50.441Z,25.98
2018-02-12T12:56:18.783Z,25.90
2018-02-12T12:58:47.109Z,25.80
2018-02-12T13:01:15.475Z,27.75
2018-02-12T13:03:44.748Z,27.58
2018-02-12T13:06:13.112Z,25.80
2018-02-12T13:08:41.471Z,27.10
2018-02-12T13:11:09.794Z,29.00
2018-02-12T13:13:38.188Z,25.45
2018-02-12T13:16:06.568Z,24.67
2018-02-12T13:18:35.005Z,24.77
2018-02-12T13:21:03.379Z,24.83
2018-02-12T13:23:31.780Z,25.90
2018-02-12T13:26:07.187Z,25.60
2018-02-12T13:28:35.641Z,26.15
2018-02-12T13:31:03.978Z,26.45
2018-02-12T13:33:32.329Z,26.35
2018-02-12T13:36:00.690Z,26.98
2018-02-12T13:38:29.033Z,28.23
2018-02-12T13:40:58.481Z,24.90
2018-02-12T13:43:26.859Z,26.25
2018-02-12T13:45:55.203Z,26.23
2018-02-12T13:48:23.563Z,28.40
2018-02-12T13:50:51.875Z,29.05
2018-02-12T13:53:20.231Z,29.37
2018-02-12T13:55:49.669Z,31.02
2018-02-12T13:58:18.010Z,33.85
2018-02-12T14:00:46.365Z,35.63
2018-02-12T14:03:14.712Z,39.20
2018-02-12T14:05:43.074Z,38.90
2018-02-12T14:08:11.428Z,40.58
2018-02-12T14:10:39.775Z,38.90
2018-02-12T14:13:08.090Z,38.05
2018-02-12T14:15:36.470Z,35.78
2018-02-12T14:18:04.798Z,38.90
2018-02-12T14:20:34.218Z,37.58
2018-02-12T14:23:02.572Z,38.67
2018-02-12T14:25:31.013Z,38.42
2018-02-12T14:27:59.385Z,36.65
2018-02-12T14:30:27.715Z,39.83
2018-02-12T14:32:56.070Z,38.63
2018-02-12T14:35:24.404Z,38.05
2018-02-12T14:37:52.814Z,38.60
2018-02-12T14:40:21.123Z,41.45
2018-02-12T14:42:50.517Z,37.85
2018-02-12T14:45:18.864Z,42.53
2018-02-12T14:47:47.253Z,37.53
2018-02-12T14:50:15.601Z,43.03
2018-02-12T14:52:43.968Z,41.03
2018-02-12T14:55:12.351Z,41.95
2018-02-12T14:57:40.733Z,39.95
2018-02-12T15:00:09.121Z,38.75
2018-02-12T15:02:37.459Z,37.17
2018-02-12T15:05:05.819Z,42.13
2018-02-12T15:07:34.159Z,40.45
2018-02-12T15:10:02.673Z,41.30
2018-02-12T15:12:31.010Z,44.47
2018-02-12T15:14:59.324Z,44.30
2018-02-12T15:17:27.693Z,48.35
2018-02-12T15:19:56.013Z,45.63
2018-02-12T15:22:24.346Z,45.15
2018-02-12T15:24:52.743Z,43.50
2018-02-12T15:27:21.085Z,41.78
2018-02-12T15:29:51.519Z,41.00
2018-02-12T15:32:20.013Z,43.42
2018-02-12T15:34:48.361Z,42.50
2018-02-12T15:37:16.822Z,42.67
2018-02-12T15:39:45.128Z,44.78
2018-02-12T15:42:13.460Z,46.17
2018-02-12T15:44:41.801Z,51.40
2018-02-12T15:47:10.163Z,52.33
2018-02-12T15:49:38.511Z,51.92
2018-02-12T15:52:06.859Z,68.12
2018-02-12T15:54:35.177Z,48.90
2018-02-12T15:57:03.537Z,48.92
2018-02-12T15:59:31.845Z,48.75
2018-02-12T16:02:00.198Z,46.22
2018-02-12T16:04:28.593Z,51.83
2018-02-12T16:06:56.926Z,50.03
2018-02-12T16:09:25.992Z,53.03
2018-02-12T16:11:54.353Z,46.85
2018-02-12T16:14:22.662Z,48.53
2018-02-12T16:16:50.996Z,46.88
2018-02-12T16:19:19.400Z,46.45
2018-02-12T16:21:48.173Z,44.38
2018-02-12T16:24:17.540Z,45.10
2018-02-12T16:26:45.917Z,43.30
2018-02-12T16:29:14.244Z,48.33
2018-02-12T16:31:42.604Z,132.30
2018-02-12T16:34:11.000Z,45.92
2018-02-12T16:36:39.342Z,45.00
2018-02-12T16:39:07.663Z,44.88
2018-02-12T16:41:36.038Z,42.67
2018-02-12T16:44:04.353Z,44.38
2018-02-12T16:46:32.788Z,35.33
2018-02-12T16:49:01.311Z,40.12
2018-02-12T16:51:29.653Z,40.55
2018-02-12T16:53:58.880Z,38.83
2018-02-12T16:56:28.954Z,40.08
2018-02-12T16:58:57.330Z,39.30
2018-02-12T17:01:25.725Z,40.90
2018-02-12T17:03:54.045Z,40.33
2018-02-12T17:06:22.410Z,48.25
2018-02-12T17:08:50.749Z,50.80
2018-02-12T17:11:19.055Z,49.97
2018-02-12T17:13:47.424Z,46.67
2018-02-12T17:16:15.755Z,43.90
2018-02-12T17:18:44.107Z,45.08
2018-02-12T17:21:12.427Z,57.58
2018-02-12T17:23:40.757Z,38.15
2018-02-12T17:26:09.158Z,34.47
2018-02-12T17:28:37.557Z,34.03
2018-02-12T17:31:05.941Z,33.15
2018-02-12T17:33:34.266Z,33.63
2018-02-12T17:36:02.662Z,32.38
2018-02-12T17:38:31.005Z,33.28
2018-02-12T17:41:00.402Z,33.50
2018-02-12T17:43:28.814Z,31.30
2018-02-12T17:45:57.822Z,27.70
2018-02-12T17:48:26.202Z,30.55
2018-02-12T17:50:54.547Z,33.70
2018-02-12T17:53:23.741Z,33.65
2018-02-12T17:55:52.074Z,34.13
2018-02-12T17:58:21.064Z,44.65
2018-02-12T18:00:49.397Z,28.20
2018-02-12T18:03:17.801Z,29.92
2018-02-12T18:05:46.181Z,27.98
2018-02-12T18:08:14.545Z,28.40
2018-02-12T18:10:42.872Z,28.17
2018-02-12T18:13:18.076Z,30.95
2018-02-12T18:15:46.503Z,28.62
2018-02-12T18:18:15.045Z,30.42
2018-02-12T18:20:43.491Z,27.35
2018-02-12T18:23:11.884Z,28.87
2018-02-12T18:25:40.449Z,29.10
2018-02-12T18:28:08.839Z,28.52
2018-02-12T18:30:37.201Z,29.30
2018-02-12T18:33:05.538Z,28.87
2018-02-12T18:35:33.902Z,25.90
2018-02-12T18:38:02.327Z,27.80
2018-02-12T18:40:30.702Z,30.33
2018-02-12T18:42:59.053Z,29.30
2018-02-12T18:45:27.422Z,30.45
2018-02-12T18:47:55.766Z,28.33
2018-02-12T18:50:27.313Z,29.52
2018-02-12T18:52:55.788Z,27.85
2018-02-12T18:55:25.609Z,29.48
2018-02-12T18:57:53.980Z,27.52
2018-02-12T19:00:22.446Z,27.58
2018-02-12T19:02:50.847Z,29.50
2018-02-12T19:05:19.254Z,36.78
2018-02-12T19:07:47.726Z,28.10
2018-02-12T19:10:16.074Z,26.92
2018-02-12T19:12:44.518Z,28.17
2018-02-12T19:15:12.854Z,29.12
2018-02-12T19:17:41.250Z,33.15
2018-02-12T19:20:09.614Z,31.35
2018-02-12T19:22:38.079Z,37.58
2018-02-12T19:25:06.498Z,35.60
2018-02-12T19:27:34.885Z,33.80
2018-02-12T19:30:03.304Z,28.75
2018-02-12T19:32:31.706Z,26.45
2018-02-12T19:35:00.087Z,30.00
2018-02-12T19:37:28.464Z,32.47
2018-02-12T19:39:56.788Z,35.60
2018-02-12T19:42:25.249Z,31.20
2018-02-12T19:44:53.659Z,37.55
2018-02-12T19:47:22.030Z,32.85
2018-02-12T19:49:50.393Z,28.38
2018-02-12T19:52:18.814Z,29.30
2018-02-12T19:54:47.245Z,30.50
2018-02-12T19:57:15.633Z,29.73
2018-02-12T19:59:44.000Z,30.23
2018-02-12T20:02:12.816Z,30.25
2018-02-12T20:04:41.242Z,31.80
2018-02-12T20:07:09.710Z,33.40
2018-02-12T20:09:38.191Z,32.65
2018-02-12T20:12:06.570Z,34.85
2018-02-12T20:14:35.184Z,37.53
2018-02-12T20:17:03.680Z,39.47
2018-02-12T20:19:32.103Z,36.42
2018-02-12T20:22:00.481Z,36.40
2018-02-12T20:24:29.749Z,37.60
2018-02-12T20:26:58.147Z,32.35
2018-02-12T20:29:26.539Z,37.63
2018-02-12T20:32:01.997Z,38.15
2018-02-12T20:34:30.447Z,34.45
2018-02-12T20:36:58.891Z,35.70
2018-02-12T20:39:27.248Z,33.10
2018-02-12T20:41:55.662Z,34.08
2018-02-12T20:44:24.167Z,30.73
2018-02-12T20:46:52.499Z,32.95
2018-02-12T20:49:20.895Z,28.90
2018-02-12T20:51:49.222Z,32.88
2018-02-12T20:54:17.657Z,29.55
2018-02-12T20:56:46.078Z,30.17
2018-02-12T20:59:14.488Z,33.33
2018-02-12T21:01:42.872Z,33.95
2018-02-12T21:04:11.249Z,33.85
2018-02-12T21:06:39.668Z,34.28
2018-02-12T21:09:08.041Z,33.75
2018-02-12T21:11:36.426Z,34.58
2018-02-12T21:14:04.745Z,37.22
2018-02-12T21:16:33.129Z,39.90
2018-02-12T21:19:01.509Z,38.15
2018-02-12T21:21:29.991Z,37.40
2018-02-12T21:23:58.353Z,40.05
2018-02-12T21:26:26.721Z,34.88
2018-02-12T21:28:55.143Z,34.97
2018-02-12T21:31:23.545Z,34.22
2018-02-12T21:33:51.892Z,34.22
2018-02-12T21:36:21.335Z,39.15
2018-02-12T21:38:49.794Z,38.95
2018-02-12T21:41:18.180Z,33.75
2018-02-12T21:43:46.530Z,30.75
2018-02-12T21:46:14.950Z,34.85
2018-02-12T21:48:43.319Z,37.88
2018-02-12T21:51:11.704Z,35.40
2018-02-12T21:53:40.173Z,33.95
2018-02-12T21:56:08.626Z,36.28
2018-02-12T21:58:44.085Z,38.40
2018-02-12T22:01:12.450Z,35.28
2018-02-12T22:03:40.757Z,34.40
2018-02-12T22:06:09.251Z,54.42
2018-02-12T22:08:37.598Z,41.47
2018-02-12T22:11:05.951Z,89.68
2018-02-12T22:13:34.396Z,34.28
2018-02-12T22:16:02.744Z,34.95
2018-02-12T22:18:31.063Z,34.55
2018-02-12T22:20:59.413Z,35.50
2018-02-12T22:23:27.973Z,39.20
2018-02-12T22:25:56.339Z,39.42
2018-02-12T22:28:24.732Z,35.20
2018-02-12T22:30:53.109Z,36.25
2018-02-12T22:33:21.469Z,38.40
2018-02-12T22:35:49.790Z,35.60
2018-02-12T22:38:18.139Z,35.83
2018-02-12T22:40:46.509Z,35.03
2018-02-12T22:43:14.901Z,38.00
2018-02-12T22:45:43.214Z,35.83
2018-02-12T22:48:11.536Z,43.40
2018-02-12T22:50:39.845Z,36.30
2018-02-12T22:53:08.173Z,34.60
2018-02-12T22:55:36.516Z,36.30
2018-02-12T22:58:04.845Z,35.65
2018-02-12T23:00:33.205Z,35.33
2018-02-12T23:03:01.529Z,33.97
2018-02-12T23:05:29.859Z,65.78
2018-02-12T23:07:58.196Z,38.70
2018-02-12T23:10:26.517Z,38.38
2018-02-12T23:12:54.877Z,41.05
2018-02-12T23:15:29.110Z,41.55
2018-02-12T23:17:57.450Z,45.75
2018-02-12T23:20:25.776Z,51.75
2018-02-12T23:22:54.145Z,52.70
2018-02-12T23:25:22.493Z,62.13
2018-02-12T23:27:50.832Z,63.70
2018-02-12T23:30:19.194Z,69.85
2018-02-12T23:32:47.537Z,49.97
2018-02-12T23:35:15.937Z,45.33
2018-02-12T23:37:44.414Z,42.97
2018-02-12T23:40:12.748Z,43.40
2018-02-12T23:42:41.070Z,42.60
2018-02-12T23:45:09.411Z,63.87
2018-02-12T23:47:37.720Z,55.80
2018-02-12T23:50:12.885Z,70.25
2018-02-12T23:52:41.247Z,95.32
2018-02-12T23:55:09.664Z,56.13
2018-02-12T23:57:38.004Z,73.03
